sensor_id;sensor_type;location;lat;lon;timestamp;temperature;humidity
7472;DHT22;3777;48.722;8.110;2023-02-19T00:01:39;12.10;99.90
7472;DHT22;3777;48.722;8.110;2023-02-19T00:04:10;12.00;99.90
7472;DHT22;3777;48.722;8.110;2023-02-19T00:06:38;12.10;99.90
7472;DHT22;3777;48.722;8.110;2023-02-19T00:09:05;12.10;99.90
7472;DHT22;3777;48.722;8.110;2023-02-19T00:11:33;12.10;99.90
7472;DHT22;3777;48.722;8.110;2023-02-19T00:14:01;12.00;99.90
7472;DHT22;3777;48.722;8.110;2023-02-19T00:16:31;12.00;99.90
7472;DHT22;3777;48.722;8.110;2023-02-19T00:19:00;12.10;99.90
7472;DHT22;3777;48.722;8.110;2023-02-19T00:21:28;12.10;99.90
7472;DHT22;3777;48.722;8.110;2023-02-19T00:23:56;12.10;99.90
7472;DHT22;3777;48.722;8.110;2023-02-19T00:26:24;12.10;99.90
7472;DHT22;3777;48.722;8.110;2023-02-19T00:28:52;12.20;99.90
7472;DHT22;3777;48.722;8.110;2023-02-19T00:31:21;12.20;99.90
7472;DHT22;3777;48.722;8.110;2023-02-19T00:33:51;12.10;99.90
7472;DHT22;3777;48.722;8.110;2023-02-19T00:36:19;12.10;99.90
7472;DHT22;3777;48.722;8.110;2023-02-19T00:38:46;12.20;99.90
7472;DHT22;3777;48.722;8.110;2023-02-19T00:41:14;12.10;99.90
7472;DHT22;3777;48.722;8.110;2023-02-19T00:43:46;12.20;99.90
7472;DHT22;3777;48.722;8.110;2023-02-19T00:46:13;12.20;99.90
7472;DHT22;3777;48.722;8.110;2023-02-19T00:48:40;12.20;99.90
7472;DHT22;3777;48.722;8.110;2023-02-19T00:51:08;12.20;99.90
7472;DHT22;3777;48.722;8.110;2023-02-19T00:53:35;12.30;99.90
7472;DHT22;3777;48.722;8.110;2023-02-19T00:56:02;12.30;99.90
7472;DHT22;3777;48.722;8.110;2023-02-19T00:58:29;12.20;99.90
7472;DHT22;3777;48.722;8.110;2023-02-19T01:00:56;12.20;99.90
7472;DHT22;3777;48.722;8.110;2023-02-19T01:03:24;12.20;99.90
7472;DHT22;3777;48.722;8.110;2023-02-19T01:05:51;12.20;99.90
7472;DHT22;3777;48.722;8.110;2023-02-19T01:08:20;12.20;99.90
7472;DHT22;3777;48.722;8.110;2023-02-19T01:10:47;12.20;99.90
7472;DHT22;3777;48.722;8.110;2023-02-19T01:13:14;12.20;99.90
7472;DHT22;3777;48.722;8.110;2023-02-19T01:15:42;12.20;99.90
7472;DHT22;3777;48.722;8.110;2023-02-19T01:18:09;12.20;99.90
7472;DHT22;3777;48.722;8.110;2023-02-19T01:20:39;12.20;99.90
7472;DHT22;3777;48.722;8.110;2023-02-19T01:23:06;12.20;99.90
7472;DHT22;3777;48.722;8.110;2023-02-19T01:25:37;12.10;99.90
7472;DHT22;3777;48.722;8.110;2023-02-19T01:28:04;12.10;99.90
7472;DHT22;3777;48.722;8.110;2023-02-19T01:30:33;12.10;99.90
7472;DHT22;3777;48.722;8.110;2023-02-19T01:33:02;12.10;99.90
7472;DHT22;3777;48.722;8.110;2023-02-19T01:35:28;12.00;99.90
7472;DHT22;3777;48.722;8.110;2023-02-19T01:37:56;12.00;99.90
7472;DHT22;3777;48.722;8.110;2023-02-19T01:40:23;12.00;99.90
7472;DHT22;3777;48.722;8.110;2023-02-19T01:42:51;11.90;99.90
7472;DHT22;3777;48.722;8.110;2023-02-19T01:45:22;11.90;99.90
7472;DHT22;3777;48.722;8.110;2023-02-19T01:48:06;11.90;99.90
7472;DHT22;3777;48.722;8.110;2023-02-19T01:50:37;11.80;99.90
7472;DHT22;3777;48.722;8.110;2023-02-19T01:53:08;11.80;99.90
7472;DHT22;3777;48.722;8.110;2023-02-19T01:55:38;11.80;99.90
7472;DHT22;3777;48.722;8.110;2023-02-19T01:58:10;11.80;99.90
7472;DHT22;3777;48.722;8.110;2023-02-19T02:00:37;11.80;99.90
7472;DHT22;3777;48.722;8.110;2023-02-19T02:03:04;11.80;99.90
7472;DHT22;3777;48.722;8.110;2023-02-19T02:05:43;11.70;99.90
7472;DHT22;3777;48.722;8.110;2023-02-19T02:08:13;11.60;99.90
7472;DHT22;3777;48.722;8.110;2023-02-19T02:10:57;11.50;99.90
7472;DHT22;3777;48.722;8.110;2023-02-19T02:13:26;11.30;99.90
7472;DHT22;3777;48.722;8.110;2023-02-19T02:15:59;11.20;99.90
7472;DHT22;3777;48.722;8.110;2023-02-19T02:18:36;11.30;99.90
7472;DHT22;3777;48.722;8.110;2023-02-19T02:24:36;11.30;99.90
7472;DHT22;3777;48.722;8.110;2023-02-19T02:27:16;11.40;99.90
7472;DHT22;3777;48.722;8.110;2023-02-19T02:30:04;11.40;99.90
7472;DHT22;3777;48.722;8.110;2023-02-19T02:32:39;11.40;99.90
7472;DHT22;3777;48.722;8.110;2023-02-19T02:35:09;11.40;99.90
7472;DHT22;3777;48.722;8.110;2023-02-19T02:37:39;11.40;99.90
7472;DHT22;3777;48.722;8.110;2023-02-19T02:40:09;11.50;99.90
7472;DHT22;3777;48.722;8.110;2023-02-19T02:42:38;11.50;99.90
7472;DHT22;3777;48.722;8.110;2023-02-19T02:45:23;11.50;99.90
7472;DHT22;3777;48.722;8.110;2023-02-19T02:48:23;11.50;99.90
7472;DHT22;3777;48.722;8.110;2023-02-19T02:50:55;11.60;99.90
7472;DHT22;3777;48.722;8.110;2023-02-19T02:53:27;11.50;99.90
7472;DHT22;3777;48.722;8.110;2023-02-19T02:56:13;11.50;99.90
7472;DHT22;3777;48.722;8.110;2023-02-19T02:58:41;11.60;99.90
7472;DHT22;3777;48.722;8.110;2023-02-19T03:01:13;11.50;99.90
7472;DHT22;3777;48.722;8.110;2023-02-19T03:04:02;11.50;99.90
7472;DHT22;3777;48.722;8.110;2023-02-19T03:06:33;11.60;99.90
7472;DHT22;3777;48.722;8.110;2023-02-19T03:09:06;11.60;99.90
7472;DHT22;3777;48.722;8.110;2023-02-19T03:11:38;11.50;99.90
7472;DHT22;3777;48.722;8.110;2023-02-19T03:14:27;11.50;99.90
7472;DHT22;3777;48.722;8.110;2023-02-19T03:17:19;11.40;99.90
7472;DHT22;3777;48.722;8.110;2023-02-19T03:20:18;11.40;99.90
7472;DHT22;3777;48.722;8.110;2023-02-19T03:22:48;11.30;99.90
7472;DHT22;3777;48.722;8.110;2023-02-19T03:25:18;11.20;99.90
7472;DHT22;3777;48.722;8.110;2023-02-19T03:28:06;11.20;99.90
7472;DHT22;3777;48.722;8.110;2023-02-19T03:30:36;11.20;99.90
7472;DHT22;3777;48.722;8.110;2023-02-19T03:33:08;11.20;99.90
7472;DHT22;3777;48.722;8.110;2023-02-19T03:35:39;11.20;99.90
7472;DHT22;3777;48.722;8.110;2023-02-19T03:38:10;11.10;99.90
7472;DHT22;3777;48.722;8.110;2023-02-19T03:40:50;11.10;99.90
7472;DHT22;3777;48.722;8.110;2023-02-19T03:43:21;11.10;99.90
7472;DHT22;3777;48.722;8.110;2023-02-19T03:45:57;11.10;99.90
7472;DHT22;3777;48.722;8.110;2023-02-19T03:48:32;11.10;99.90
7472;DHT22;3777;48.722;8.110;2023-02-19T03:51:26;11.10;99.90
7472;DHT22;3777;48.722;8.110;2023-02-19T03:54:04;11.10;99.90
7472;DHT22;3777;48.722;8.110;2023-02-19T03:56:38;11.10;99.90
7472;DHT22;3777;48.722;8.110;2023-02-19T03:59:10;11.10;99.90
7472;DHT22;3777;48.722;8.110;2023-02-19T04:01:41;10.90;99.90
7472;DHT22;3777;48.722;8.110;2023-02-19T04:04:15;10.90;99.90
7472;DHT22;3777;48.722;8.110;2023-02-19T04:06:46;11.00;99.90
7472;DHT22;3777;48.722;8.110;2023-02-19T04:09:19;11.00;99.90
7472;DHT22;3777;48.722;8.110;2023-02-19T04:11:47;11.00;99.90
7472;DHT22;3777;48.722;8.110;2023-02-19T04:14:18;11.00;99.90
7472;DHT22;3777;48.722;8.110;2023-02-19T04:16:48;11.00;99.90
7472;DHT22;3777;48.722;8.110;2023-02-19T04:19:20;10.90;99.90
7472;DHT22;3777;48.722;8.110;2023-02-19T04:21:49;10.90;99.90
7472;DHT22;3777;48.722;8.110;2023-02-19T04:24:21;10.90;99.90
7472;DHT22;3777;48.722;8.110;2023-02-19T04:26:48;11.00;99.90
7472;DHT22;3777;48.722;8.110;2023-02-19T04:29:15;10.90;99.90
7472;DHT22;3777;48.722;8.110;2023-02-19T04:31:42;10.90;99.90
7472;DHT22;3777;48.722;8.110;2023-02-19T04:34:09;10.90;99.90
7472;DHT22;3777;48.722;8.110;2023-02-19T04:36:37;10.90;99.90
7472;DHT22;3777;48.722;8.110;2023-02-19T04:39:05;10.80;99.90
7472;DHT22;3777;48.722;8.110;2023-02-19T04:41:33;10.80;99.90
7472;DHT22;3777;48.722;8.110;2023-02-19T04:44:00;10.80;99.90
7472;DHT22;3777;48.722;8.110;2023-02-19T04:46:27;10.80;99.90
7472;DHT22;3777;48.722;8.110;2023-02-19T04:48:54;10.70;99.90
7472;DHT22;3777;48.722;8.110;2023-02-19T04:51:22;10.70;99.90
7472;DHT22;3777;48.722;8.110;2023-02-19T04:53:50;10.70;99.90
7472;DHT22;3777;48.722;8.110;2023-02-19T04:56:17;10.60;99.90
7472;DHT22;3777;48.722;8.110;2023-02-19T04:58:44;10.60;99.90
7472;DHT22;3777;48.722;8.110;2023-02-19T05:01:12;10.60;99.90
7472;DHT22;3777;48.722;8.110;2023-02-19T05:03:39;10.60;99.90
7472;DHT22;3777;48.722;8.110;2023-02-19T05:06:08;10.60;99.90
7472;DHT22;3777;48.722;8.110;2023-02-19T05:08:36;10.60;99.90
7472;DHT22;3777;48.722;8.110;2023-02-19T05:11:06;10.60;99.90
7472;DHT22;3777;48.722;8.110;2023-02-19T05:13:35;10.50;99.90
7472;DHT22;3777;48.722;8.110;2023-02-19T05:16:04;10.50;99.90
7472;DHT22;3777;48.722;8.110;2023-02-19T05:18:32;10.50;99.90
7472;DHT22;3777;48.722;8.110;2023-02-19T05:21:00;10.50;99.90
7472;DHT22;3777;48.722;8.110;2023-02-19T05:23:27;10.50;99.90
7472;DHT22;3777;48.722;8.110;2023-02-19T05:25:54;10.50;99.90
7472;DHT22;3777;48.722;8.110;2023-02-19T05:28:23;10.40;99.90
7472;DHT22;3777;48.722;8.110;2023-02-19T05:30:53;10.50;99.90
7472;DHT22;3777;48.722;8.110;2023-02-19T05:33:22;10.40;99.90
7472;DHT22;3777;48.722;8.110;2023-02-19T05:35:51;10.40;99.90
7472;DHT22;3777;48.722;8.110;2023-02-19T05:38:18;10.40;99.90
7472;DHT22;3777;48.722;8.110;2023-02-19T05:40:46;10.40;99.90
7472;DHT22;3777;48.722;8.110;2023-02-19T05:43:13;10.30;99.90
7472;DHT22;3777;48.722;8.110;2023-02-19T05:45:42;10.20;99.90
7472;DHT22;3777;48.722;8.110;2023-02-19T05:48:10;10.20;99.90
7472;DHT22;3777;48.722;8.110;2023-02-19T05:50:37;10.10;99.90
7472;DHT22;3777;48.722;8.110;2023-02-19T05:53:04;10.10;99.90
7472;DHT22;3777;48.722;8.110;2023-02-19T05:55:34;10.00;99.90
7472;DHT22;3777;48.722;8.110;2023-02-19T05:58:01;10.00;99.90
7472;DHT22;3777;48.722;8.110;2023-02-19T06:00:28;10.00;99.90
7472;DHT22;3777;48.722;8.110;2023-02-19T06:02:57;9.90;99.90
7472;DHT22;3777;48.722;8.110;2023-02-19T06:05:24;9.80;99.90
7472;DHT22;3777;48.722;8.110;2023-02-19T06:07:51;9.60;99.90
7472;DHT22;3777;48.722;8.110;2023-02-19T06:10:18;9.50;99.90
7472;DHT22;3777;48.722;8.110;2023-02-19T06:12:45;9.50;99.90
7472;DHT22;3777;48.722;8.110;2023-02-19T06:15:12;9.50;99.90
7472;DHT22;3777;48.722;8.110;2023-02-19T06:17:38;9.50;99.90
7472;DHT22;3777;48.722;8.110;2023-02-19T06:20:08;9.60;99.90
7472;DHT22;3777;48.722;8.110;2023-02-19T06:22:35;9.70;99.90
7472;DHT22;3777;48.722;8.110;2023-02-19T06:25:02;9.70;99.90
7472;DHT22;3777;48.722;8.110;2023-02-19T06:27:29;9.70;99.90
7472;DHT22;3777;48.722;8.110;2023-02-19T06:29:56;9.80;99.90
7472;DHT22;3777;48.722;8.110;2023-02-19T06:32:23;9.80;99.90
7472;DHT22;3777;48.722;8.110;2023-02-19T06:34:50;9.90;99.90
7472;DHT22;3777;48.722;8.110;2023-02-19T06:37:18;9.80;99.90
7472;DHT22;3777;48.722;8.110;2023-02-19T06:39:45;10.00;99.90
7472;DHT22;3777;48.722;8.110;2023-02-19T06:42:12;9.90;99.90
7472;DHT22;3777;48.722;8.110;2023-02-19T06:44:39;9.90;99.90
7472;DHT22;3777;48.722;8.110;2023-02-19T06:47:06;10.00;99.90
7472;DHT22;3777;48.722;8.110;2023-02-19T06:49:33;10.00;99.90
7472;DHT22;3777;48.722;8.110;2023-02-19T06:52:00;9.90;99.90
7472;DHT22;3777;48.722;8.110;2023-02-19T06:54:29;9.80;99.90
7472;DHT22;3777;48.722;8.110;2023-02-19T06:56:58;9.80;99.90
7472;DHT22;3777;48.722;8.110;2023-02-19T06:59:25;9.80;99.90
7472;DHT22;3777;48.722;8.110;2023-02-19T07:01:52;9.80;99.90
7472;DHT22;3777;48.722;8.110;2023-02-19T07:04:19;9.90;99.90
7472;DHT22;3777;48.722;8.110;2023-02-19T07:06:46;9.80;99.90
7472;DHT22;3777;48.722;8.110;2023-02-19T07:09:13;9.90;99.90
7472;DHT22;3777;48.722;8.110;2023-02-19T07:11:41;9.90;99.90
7472;DHT22;3777;48.722;8.110;2023-02-19T07:14:13;10.00;99.90
7472;DHT22;3777;48.722;8.110;2023-02-19T07:16:40;10.10;99.90
7472;DHT22;3777;48.722;8.110;2023-02-19T07:19:09;10.10;99.90
7472;DHT22;3777;48.722;8.110;2023-02-19T07:21:36;10.10;99.90
7472;DHT22;3777;48.722;8.110;2023-02-19T07:24:03;10.20;99.90
7472;DHT22;3777;48.722;8.110;2023-02-19T07:26:31;10.20;99.90
7472;DHT22;3777;48.722;8.110;2023-02-19T07:28:59;10.30;99.90
7472;DHT22;3777;48.722;8.110;2023-02-19T07:31:27;10.30;99.90
7472;DHT22;3777;48.722;8.110;2023-02-19T07:33:55;10.40;99.90
7472;DHT22;3777;48.722;8.110;2023-02-19T07:36:22;10.40;99.90
7472;DHT22;3777;48.722;8.110;2023-02-19T07:38:54;10.40;99.90
7472;DHT22;3777;48.722;8.110;2023-02-19T07:41:21;10.40;99.90
7472;DHT22;3777;48.722;8.110;2023-02-19T07:43:48;10.40;99.90
7472;DHT22;3777;48.722;8.110;2023-02-19T07:46:17;10.30;99.90
7472;DHT22;3777;48.722;8.110;2023-02-19T07:48:44;10.20;99.90
7472;DHT22;3777;48.722;8.110;2023-02-19T07:51:13;10.20;99.90
7472;DHT22;3777;48.722;8.110;2023-02-19T07:53:41;10.20;99.90
7472;DHT22;3777;48.722;8.110;2023-02-19T07:56:09;10.20;99.90
7472;DHT22;3777;48.722;8.110;2023-02-19T07:58:36;10.30;99.90
7472;DHT22;3777;48.722;8.110;2023-02-19T08:01:09;10.40;99.90
7472;DHT22;3777;48.722;8.110;2023-02-19T08:03:38;10.50;99.90
7472;DHT22;3777;48.722;8.110;2023-02-19T08:06:05;10.60;99.90
7472;DHT22;3777;48.722;8.110;2023-02-19T08:08:32;10.60;99.90
7472;DHT22;3777;48.722;8.110;2023-02-19T08:11:00;10.70;99.90
7472;DHT22;3777;48.722;8.110;2023-02-19T08:13:47;10.80;99.90
7472;DHT22;3777;48.722;8.110;2023-02-19T08:16:14;10.80;99.90
7472;DHT22;3777;48.722;8.110;2023-02-19T08:18:43;10.90;99.90
7472;DHT22;3777;48.722;8.110;2023-02-19T08:21:11;10.90;99.90
7472;DHT22;3777;48.722;8.110;2023-02-19T08:23:38;11.00;99.90
7472;DHT22;3777;48.722;8.110;2023-02-19T08:26:06;11.00;99.90
7472;DHT22;3777;48.722;8.110;2023-02-19T08:28:34;11.10;99.90
7472;DHT22;3777;48.722;8.110;2023-02-19T08:31:04;11.20;99.90
7472;DHT22;3777;48.722;8.110;2023-02-19T08:33:31;11.20;99.90
7472;DHT22;3777;48.722;8.110;2023-02-19T08:36:02;11.30;99.90
7472;DHT22;3777;48.722;8.110;2023-02-19T08:38:30;11.40;99.90
7472;DHT22;3777;48.722;8.110;2023-02-19T08:40:58;11.40;99.90
7472;DHT22;3777;48.722;8.110;2023-02-19T08:43:25;11.50;99.90
7472;DHT22;3777;48.722;8.110;2023-02-19T08:45:53;11.60;99.90
7472;DHT22;3777;48.722;8.110;2023-02-19T08:48:20;11.70;99.90
7472;DHT22;3777;48.722;8.110;2023-02-19T08:50:53;11.70;99.90
7472;DHT22;3777;48.722;8.110;2023-02-19T08:53:22;11.60;99.90
7472;DHT22;3777;48.722;8.110;2023-02-19T08:55:49;11.70;99.90
7472;DHT22;3777;48.722;8.110;2023-02-19T08:58:16;11.70;99.90
7472;DHT22;3777;48.722;8.110;2023-02-19T09:00:43;11.80;99.90
7472;DHT22;3777;48.722;8.110;2023-02-19T09:03:10;11.90;99.90
7472;DHT22;3777;48.722;8.110;2023-02-19T09:05:37;11.90;99.90
7472;DHT22;3777;48.722;8.110;2023-02-19T09:08:04;11.90;99.90
7472;DHT22;3777;48.722;8.110;2023-02-19T09:10:32;11.90;99.90
7472;DHT22;3777;48.722;8.110;2023-02-19T09:12:59;11.90;99.90
7472;DHT22;3777;48.722;8.110;2023-02-19T09:15:27;11.90;99.90
7472;DHT22;3777;48.722;8.110;2023-02-19T09:17:54;12.00;99.90
7472;DHT22;3777;48.722;8.110;2023-02-19T09:20:21;12.00;99.90
7472;DHT22;3777;48.722;8.110;2023-02-19T09:22:48;11.90;99.90
7472;DHT22;3777;48.722;8.110;2023-02-19T09:25:15;11.90;99.90
7472;DHT22;3777;48.722;8.110;2023-02-19T09:27:44;11.90;99.90
7472;DHT22;3777;48.722;8.110;2023-02-19T09:30:11;12.00;99.90
7472;DHT22;3777;48.722;8.110;2023-02-19T09:32:38;12.00;99.90
7472;DHT22;3777;48.722;8.110;2023-02-19T09:35:05;12.10;99.90
7472;DHT22;3777;48.722;8.110;2023-02-19T09:37:32;12.10;99.90
7472;DHT22;3777;48.722;8.110;2023-02-19T09:39:59;12.10;99.90
7472;DHT22;3777;48.722;8.110;2023-02-19T09:42:28;12.10;99.90
7472;DHT22;3777;48.722;8.110;2023-02-19T09:44:59;12.20;99.90
7472;DHT22;3777;48.722;8.110;2023-02-19T09:47:27;12.40;99.90
7472;DHT22;3777;48.722;8.110;2023-02-19T09:49:57;12.50;99.90
7472;DHT22;3777;48.722;8.110;2023-02-19T09:52:29;12.60;99.90
7472;DHT22;3777;48.722;8.110;2023-02-19T09:55:00;12.60;99.90
7472;DHT22;3777;48.722;8.110;2023-02-19T09:57:29;12.60;99.90
7472;DHT22;3777;48.722;8.110;2023-02-19T10:00:03;12.60;99.90
7472;DHT22;3777;48.722;8.110;2023-02-19T10:02:31;12.70;99.90
7472;DHT22;3777;48.722;8.110;2023-02-19T10:04:58;12.70;99.90
7472;DHT22;3777;48.722;8.110;2023-02-19T10:07:32;12.70;99.90
7472;DHT22;3777;48.722;8.110;2023-02-19T10:10:17;12.70;99.90
7472;DHT22;3777;48.722;8.110;2023-02-19T10:12:46;12.80;99.90
7472;DHT22;3777;48.722;8.110;2023-02-19T10:15:19;12.80;99.90
7472;DHT22;3777;48.722;8.110;2023-02-19T10:17:49;12.80;99.90
7472;DHT22;3777;48.722;8.110;2023-02-19T10:20:19;12.80;99.90
7472;DHT22;3777;48.722;8.110;2023-02-19T10:22:59;12.90;99.90
7472;DHT22;3777;48.722;8.110;2023-02-19T10:25:27;12.90;99.90
7472;DHT22;3777;48.722;8.110;2023-02-19T10:27:57;13.00;99.90
7472;DHT22;3777;48.722;8.110;2023-02-19T10:30:30;13.10;99.90
7472;DHT22;3777;48.722;8.110;2023-02-19T10:32:59;13.10;99.90
7472;DHT22;3777;48.722;8.110;2023-02-19T10:35:27;13.10;99.90
7472;DHT22;3777;48.722;8.110;2023-02-19T10:37:55;13.20;99.90
7472;DHT22;3777;48.722;8.110;2023-02-19T10:40:24;13.30;99.90
7472;DHT22;3777;48.722;8.110;2023-02-19T10:42:53;13.40;99.90
7472;DHT22;3777;48.722;8.110;2023-02-19T10:45:27;13.60;99.90
7472;DHT22;3777;48.722;8.110;2023-02-19T10:47:56;13.60;99.90
7472;DHT22;3777;48.722;8.110;2023-02-19T10:50:26;13.70;99.90
7472;DHT22;3777;48.722;8.110;2023-02-19T10:52:57;13.70;99.90
7472;DHT22;3777;48.722;8.110;2023-02-19T10:55:30;13.70;99.90
7472;DHT22;3777;48.722;8.110;2023-02-19T10:58:19;13.60;99.90
7472;DHT22;3777;48.722;8.110;2023-02-19T11:01:11;13.70;99.90
7472;DHT22;3777;48.722;8.110;2023-02-19T11:03:38;13.70;99.90
7472;DHT22;3777;48.722;8.110;2023-02-19T11:06:07;13.60;99.90
7472;DHT22;3777;48.722;8.110;2023-02-19T11:08:45;13.50;99.90
7472;DHT22;3777;48.722;8.110;2023-02-19T11:11:25;13.50;99.90
7472;DHT22;3777;48.722;8.110;2023-02-19T11:13:53;13.40;99.90
7472;DHT22;3777;48.722;8.110;2023-02-19T11:16:23;13.30;99.90
7472;DHT22;3777;48.722;8.110;2023-02-19T11:19:02;13.40;99.90
7472;DHT22;3777;48.722;8.110;2023-02-19T11:21:29;13.40;99.90
7472;DHT22;3777;48.722;8.110;2023-02-19T11:23:58;13.50;99.90
7472;DHT22;3777;48.722;8.110;2023-02-19T11:26:30;13.60;99.90
7472;DHT22;3777;48.722;8.110;2023-02-19T11:29:00;13.70;99.90
7472;DHT22;3777;48.722;8.110;2023-02-19T11:31:30;13.80;99.90
7472;DHT22;3777;48.722;8.110;2023-02-19T11:34:00;13.90;99.90
7472;DHT22;3777;48.722;8.110;2023-02-19T11:36:30;13.90;99.90
7472;DHT22;3777;48.722;8.110;2023-02-19T11:38:59;14.00;99.90
7472;DHT22;3777;48.722;8.110;2023-02-19T11:44:48;14.20;99.90
7472;DHT22;3777;48.722;8.110;2023-02-19T11:47:50;14.30;99.90
7472;DHT22;3777;48.722;8.110;2023-02-19T11:50:22;14.40;99.90
7472;DHT22;3777;48.722;8.110;2023-02-19T11:53:01;14.50;99.90
7472;DHT22;3777;48.722;8.110;2023-02-19T11:55:41;14.50;99.90
7472;DHT22;3777;48.722;8.110;2023-02-19T11:58:28;14.40;99.90
7472;DHT22;3777;48.722;8.110;2023-02-19T12:01:07;14.30;99.90
7472;DHT22;3777;48.722;8.110;2023-02-19T12:03:55;14.30;99.90
7472;DHT22;3777;48.722;8.110;2023-02-19T12:06:30;14.30;99.90
7472;DHT22;3777;48.722;8.110;2023-02-19T12:09:18;14.20;99.90
7472;DHT22;3777;48.722;8.110;2023-02-19T12:11:55;14.10;99.90
7472;DHT22;3777;48.722;8.110;2023-02-19T12:14:53;14.00;99.90
7472;DHT22;3777;48.722;8.110;2023-02-19T12:17:48;14.10;99.90
7472;DHT22;3777;48.722;8.110;2023-02-19T12:20:25;14.00;99.90
7472;DHT22;3777;48.722;8.110;2023-02-19T12:23:06;14.00;99.90
7472;DHT22;3777;48.722;8.110;2023-02-19T12:25:48;14.00;99.90
7472;DHT22;3777;48.722;8.110;2023-02-19T12:34:44;14.00;99.90
7472;DHT22;3777;48.722;8.110;2023-02-19T12:37:25;13.90;99.90
7472;DHT22;3777;48.722;8.110;2023-02-19T12:40:09;13.90;99.90
7472;DHT22;3777;48.722;8.110;2023-02-19T12:42:50;14.00;99.90
7472;DHT22;3777;48.722;8.110;2023-02-19T12:45:23;14.10;99.90
7472;DHT22;3777;48.722;8.110;2023-02-19T12:48:00;14.20;99.90
7472;DHT22;3777;48.722;8.110;2023-02-19T12:50:30;14.30;99.90
7472;DHT22;3777;48.722;8.110;2023-02-19T12:53:01;14.40;99.90
7472;DHT22;3777;48.722;8.110;2023-02-19T12:55:34;14.40;99.90
7472;DHT22;3777;48.722;8.110;2023-02-19T12:58:05;14.40;99.90
7472;DHT22;3777;48.722;8.110;2023-02-19T13:00:37;14.40;99.90
7472;DHT22;3777;48.722;8.110;2023-02-19T13:03:11;14.40;99.90
7472;DHT22;3777;48.722;8.110;2023-02-19T13:05:46;14.40;99.90
7472;DHT22;3777;48.722;8.110;2023-02-19T13:08:21;14.20;99.90
7472;DHT22;3777;48.722;8.110;2023-02-19T13:10:55;14.20;99.90
7472;DHT22;3777;48.722;8.110;2023-02-19T13:13:27;14.20;99.90
7472;DHT22;3777;48.722;8.110;2023-02-19T13:15:59;14.20;99.90
7472;DHT22;3777;48.722;8.110;2023-02-19T13:18:33;14.20;99.90
7472;DHT22;3777;48.722;8.110;2023-02-19T13:21:01;14.20;99.90
7472;DHT22;3777;48.722;8.110;2023-02-19T13:23:32;14.10;99.90
7472;DHT22;3777;48.722;8.110;2023-02-19T13:26:35;14.00;99.90
7472;DHT22;3777;48.722;8.110;2023-02-19T13:29:25;13.90;99.90
7472;DHT22;3777;48.722;8.110;2023-02-19T13:32:10;13.80;99.90
7472;DHT22;3777;48.722;8.110;2023-02-19T13:34:50;13.70;99.90
7472;DHT22;3777;48.722;8.110;2023-02-19T13:37:20;13.60;99.90
7472;DHT22;3777;48.722;8.110;2023-02-19T13:39:50;13.50;99.90
7472;DHT22;3777;48.722;8.110;2023-02-19T13:42:24;13.40;99.90
7472;DHT22;3777;48.722;8.110;2023-02-19T13:44:52;13.40;99.90
7472;DHT22;3777;48.722;8.110;2023-02-19T13:47:48;13.30;99.90
7472;DHT22;3777;48.722;8.110;2023-02-19T13:50:23;13.00;99.90
7472;DHT22;3777;48.722;8.110;2023-02-19T13:52:50;12.90;99.90
7472;DHT22;3777;48.722;8.110;2023-02-19T13:55:48;12.90;99.90
7472;DHT22;3777;48.722;8.110;2023-02-19T14:04:49;13.00;99.90
7472;DHT22;3777;48.722;8.110;2023-02-19T14:10:11;13.20;99.90
7472;DHT22;3777;48.722;8.110;2023-02-19T14:12:40;13.20;99.90
7472;DHT22;3777;48.722;8.110;2023-02-19T14:15:39;13.20;99.90
7472;DHT22;3777;48.722;8.110;2023-02-19T14:18:39;13.30;99.90
7472;DHT22;3777;48.722;8.110;2023-02-19T14:21:14;13.20;99.90
7472;DHT22;3777;48.722;8.110;2023-02-19T14:23:41;13.20;99.90
7472;DHT22;3777;48.722;8.110;2023-02-19T14:26:09;13.30;99.90
7472;DHT22;3777;48.722;8.110;2023-02-19T14:28:40;13.30;99.90
7472;DHT22;3777;48.722;8.110;2023-02-19T14:31:26;13.30;99.90
7472;DHT22;3777;48.722;8.110;2023-02-19T14:33:55;13.30;99.90
7472;DHT22;3777;48.722;8.110;2023-02-19T14:36:41;13.20;99.90
7472;DHT22;3777;48.722;8.110;2023-02-19T14:39:13;13.20;99.90
7472;DHT22;3777;48.722;8.110;2023-02-19T14:41:44;13.20;99.90
7472;DHT22;3777;48.722;8.110;2023-02-19T14:44:17;13.20;99.90
7472;DHT22;3777;48.722;8.110;2023-02-19T14:46:50;13.30;99.90
7472;DHT22;3777;48.722;8.110;2023-02-19T14:49:24;13.30;99.90
7472;DHT22;3777;48.722;8.110;2023-02-19T14:51:55;13.30;99.90
7472;DHT22;3777;48.722;8.110;2023-02-19T14:54:37;13.30;99.90
7472;DHT22;3777;48.722;8.110;2023-02-19T14:57:10;13.30;99.90
7472;DHT22;3777;48.722;8.110;2023-02-19T14:59:39;13.20;99.90
7472;DHT22;3777;48.722;8.110;2023-02-19T15:02:14;13.20;99.90
7472;DHT22;3777;48.722;8.110;2023-02-19T15:04:42;13.20;99.90
7472;DHT22;3777;48.722;8.110;2023-02-19T15:07:14;13.10;99.90
7472;DHT22;3777;48.722;8.110;2023-02-19T15:09:44;13.10;99.90
7472;DHT22;3777;48.722;8.110;2023-02-19T15:12:19;13.10;99.90
7472;DHT22;3777;48.722;8.110;2023-02-19T15:14:50;13.10;99.90
7472;DHT22;3777;48.722;8.110;2023-02-19T15:17:23;13.10;99.90
7472;DHT22;3777;48.722;8.110;2023-02-19T15:19:51;13.10;99.90
7472;DHT22;3777;48.722;8.110;2023-02-19T15:22:21;13.10;99.90
7472;DHT22;3777;48.722;8.110;2023-02-19T15:24:48;13.10;99.90
7472;DHT22;3777;48.722;8.110;2023-02-19T15:27:16;13.10;99.90
7472;DHT22;3777;48.722;8.110;2023-02-19T15:29:45;13.10;99.90
7472;DHT22;3777;48.722;8.110;2023-02-19T15:32:18;13.00;99.90
7472;DHT22;3777;48.722;8.110;2023-02-19T15:34:53;13.00;99.90
7472;DHT22;3777;48.722;8.110;2023-02-19T15:37:21;13.10;99.90
7472;DHT22;3777;48.722;8.110;2023-02-19T15:39:49;13.10;99.90
7472;DHT22;3777;48.722;8.110;2023-02-19T15:42:19;13.10;99.90
7472;DHT22;3777;48.722;8.110;2023-02-19T15:44:50;13.10;99.90
7472;DHT22;3777;48.722;8.110;2023-02-19T15:47:25;12.90;99.90
7472;DHT22;3777;48.722;8.110;2023-02-19T15:49:57;12.90;99.90
7472;DHT22;3777;48.722;8.110;2023-02-19T15:52:32;12.80;99.90
7472;DHT22;3777;48.722;8.110;2023-02-19T15:55:12;12.80;99.90
7472;DHT22;3777;48.722;8.110;2023-02-19T15:57:45;12.70;99.90
7472;DHT22;3777;48.722;8.110;2023-02-19T16:00:17;12.70;99.90
7472;DHT22;3777;48.722;8.110;2023-02-19T16:02:47;12.60;99.90
7472;DHT22;3777;48.722;8.110;2023-02-19T16:05:22;12.60;99.90
7472;DHT22;3777;48.722;8.110;2023-02-19T16:08:05;12.60;99.90
7472;DHT22;3777;48.722;8.110;2023-02-19T16:10:32;12.50;99.90
7472;DHT22;3777;48.722;8.110;2023-02-19T16:13:01;12.50;99.90
7472;DHT22;3777;48.722;8.110;2023-02-19T16:15:30;12.50;99.90
7472;DHT22;3777;48.722;8.110;2023-02-19T16:18:00;12.40;99.90
7472;DHT22;3777;48.722;8.110;2023-02-19T16:20:28;12.40;99.90
7472;DHT22;3777;48.722;8.110;2023-02-19T16:22:58;12.40;99.90
7472;DHT22;3777;48.722;8.110;2023-02-19T16:25:29;12.40;99.90
7472;DHT22;3777;48.722;8.110;2023-02-19T16:27:58;12.40;99.90
7472;DHT22;3777;48.722;8.110;2023-02-19T16:30:30;12.40;99.90
7472;DHT22;3777;48.722;8.110;2023-02-19T16:33:37;12.30;99.90
7472;DHT22;3777;48.722;8.110;2023-02-19T16:36:22;12.30;99.90
7472;DHT22;3777;48.722;8.110;2023-02-19T16:39:18;12.20;99.90
7472;DHT22;3777;48.722;8.110;2023-02-19T16:42:15;12.20;99.90
7472;DHT22;3777;48.722;8.110;2023-02-19T16:44:43;12.20;99.90
7472;DHT22;3777;48.722;8.110;2023-02-19T16:47:31;12.10;99.90
7472;DHT22;3777;48.722;8.110;2023-02-19T16:50:02;12.10;99.90
7472;DHT22;3777;48.722;8.110;2023-02-19T16:52:29;12.00;99.90
7472;DHT22;3777;48.722;8.110;2023-02-19T16:54:56;12.00;99.90